Terral, Oklahoma
Current Conditions -  °F | °C
As of 9:15 PM on Thursday 27 Nov 2014 (Local Time) from K0F2 Reporting Station
Clear Clear  
Wind Chill: 38°   Ceiling: Unl
Heat Index: 41°   Visibility: 10mi
Dew Point: 26°   Wind: 5mph
Humidity: 55%   Direction: 130°SE
Pressure: 30.34"   Gusts: NA
Location:  33.9°N, 97.94°W
Report Text: K0F2 280315Z AUTO 13004KT 10SM CLR 05/M03 A3034 RMK AO2 T00521032
Loading
Personal Weather Stations






























Interactive Weather Map New forecast layout! Learn more

10-Day Weather Forecast

Advertisements
Track Severe Weather on mobile